Time;durP1;ratioP1;P1;durP2;ratioP2;P2;SDS_P1;SDS_P2;PMS_P1;PMS_P2;Temp;Humidity;BMP_temperature;BMP_pressure;BME280_temperature;BME280_humidity;BME280_pressure;Samples;Min_cycle;Max_cycle;Signal;HPM_P1;HPM_P2
2023/12/27 00:01:17;;;;;;;7.13;4.37;;;21.40;84.90;;;;;;5007156;28;20484;-60
2023/12/27 00:03:53;;;;;;;6.07;4.10;;;21.40;85.00;;;;;;5014912;28;20466;-59
2023/12/27 00:06:21;;;;;;;5.80;4.87;;;21.30;85.00;;;;;;5012927;28;20837;-57
2023/12/27 00:08:47;;;;;;;4.83;3.80;;;21.30;84.90;;;;;;5014319;28;20482;-60
2023/12/27 00:11:21;;;;;;;7.20;3.90;;;21.30;85.00;;;;;;5015011;28;20991;-61
2023/12/27 00:13:48;;;;;;;4.93;4.37;;;21.30;85.10;;;;;;5013674;28;21055;-60
2023/12/27 00:16:20;;;;;;;4.90;3.80;;;21.30;85.00;;;;;;5010901;28;20459;-59
2023/12/27 00:18:46;;;;;;;4.90;4.40;;;21.30;85.10;;;;;;5011391;28;20481;-59
2023/12/27 00:21:14;;;;;;;5.53;4.17;;;21.30;85.10;;;;;;5013174;28;20468;-60
2023/12/27 00:23:46;;;;;;;4.73;3.70;;;21.30;85.10;;;;;;5012023;28;20464;-59
2023/12/27 00:26:13;;;;;;;5.47;4.00;;;21.30;85.10;;;;;;5013280;28;20477;-59
2023/12/27 00:28:42;;;;;;;8.20;5.03;;;21.30;85.10;;;;;;5014209;28;20678;-59
2023/12/27 00:31:09;;;;;;;3.87;3.47;;;21.30;85.10;;;;;;5014849;28;20223;-59
2023/12/27 00:33:38;;;;;;;5.67;4.67;;;21.30;85.20;;;;;;5018764;28;20454;-60
2023/12/27 00:36:08;;;;;;;6.22;4.00;;;21.30;85.20;;;;;;5016718;28;21403;-60
2023/12/27 00:38:36;;;;;;;6.05;4.80;;;21.30;85.10;;;;;;5017413;28;20205;-59
2023/12/27 00:41:03;;;;;;;4.30;3.25;;;21.20;85.00;;;;;;5012962;28;20206;-59
2023/12/27 00:43:31;;;;;;;6.15;4.00;;;21.20;85.10;;;;;;5017147;28;20199;-60
2023/12/27 00:46:02;;;;;;;5.32;4.10;;;21.20;85.00;;;;;;5010800;28;20206;-60
2023/12/27 00:48:31;;;;;;;6.27;3.77;;;21.20;85.20;;;;;;5013911;28;20202;-59
2023/12/27 00:50:59;;;;;;;6.10;3.72;;;21.20;85.10;;;;;;5016555;28;20474;-60
2023/12/27 00:53:26;;;;;;;6.03;4.13;;;21.20;85.10;;;;;;5017068;28;20215;-60
2023/12/27 00:55:57;;;;;;;5.40;3.67;;;21.20;85.10;;;;;;5014545;28;20758;-59
2023/12/27 00:58:25;;;;;;;3.63;3.23;;;21.10;85.10;;;;;;5012929;28;20299;-60
2023/12/27 01:00:52;;;;;;;4.90;4.03;;;21.10;85.00;;;;;;5010737;28;20472;-58
2023/12/27 01:03:20;;;;;;;5.23;4.20;;;21.10;85.10;;;;;;5009962;28;20458;-60
2023/12/27 01:05:47;;;;;;;4.80;4.25;;;21.10;85.10;;;;;;5013130;28;20473;-60
2023/12/27 01:08:15;;;;;;;4.83;3.53;;;21.10;85.10;;;;;;5015571;28;20203;-59
2023/12/27 01:10:42;;;;;;;6.65;4.00;;;21.10;85.10;;;;;;5013271;28;21049;-59
2023/12/27 01:13:10;;;;;;;5.05;4.22;;;21.10;85.10;;;;;;5010508;28;20461;-60
2023/12/27 01:15:37;;;;;;;4.97;3.70;;;21.10;85.10;;;;;;5011393;28;20201;-60
2023/12/27 01:18:04;;;;;;;5.33;3.80;;;21.10;85.10;;;;;;5014174;28;20602;-58
2023/12/27 01:20:32;;;;;;;5.00;3.80;;;21.10;85.30;;;;;;5011308;28;20462;-60
2023/12/27 01:23:00;;;;;;;4.97;3.67;;;21.10;85.20;;;;;;5015276;28;20806;-60
2023/12/27 01:25:28;;;;;;;7.40;3.70;;;21.00;85.10;;;;;;5016042;28;21077;-60
2023/12/27 01:27:58;;;;;;;4.68;3.70;;;21.00;85.10;;;;;;5011816;28;20585;-57
2023/12/27 01:30:26;;;;;;;4.10;3.47;;;21.00;85.00;;;;;;5012048;28;20210;-60
2023/12/27 01:32:53;;;;;;;4.80;3.50;;;21.00;85.10;;;;;;5012432;28;20510;-60
2023/12/27 01:35:20;;;;;;;5.60;3.77;;;21.00;85.00;;;;;;5015711;28;20466;-59
2023/12/27 01:37:51;;;;;;;4.40;3.83;;;21.00;85.00;;;;;;5011955;28;20476;-59
2023/12/27 01:40:19;;;;;;;4.20;3.10;;;21.00;85.00;;;;;;5012676;28;20809;-59
2023/12/27 01:42:48;;;;;;;4.05;3.15;;;21.00;85.10;;;;;;5007589;28;20939;-60
2023/12/27 01:45:18;;;;;;;6.38;3.47;;;21.00;85.30;;;;;;5014429;28;20208;-59
2023/12/27 01:47:45;;;;;;;4.53;4.10;;;21.00;85.10;;;;;;5010954;28;20196;-59
2023/12/27 01:50:12;;;;;;;5.75;4.30;;;21.00;85.20;;;;;;5012532;28;20485;-59
2023/12/27 01:52:40;;;;;;;5.60;3.90;;;21.00;85.30;;;;;;5013414;28;20661;-60
2023/12/27 01:55:11;;;;;;;3.57;2.93;;;20.90;85.10;;;;;;5012786;28;20466;-60
2023/12/27 01:57:39;;;;;;;4.07;2.73;;;20.90;85.00;;;;;;5010023;28;20462;-59
2023/12/27 02:00:09;;;;;;;4.63;3.60;;;20.90;85.00;;;;;;5011565;28;20916;-59
2023/12/27 02:02:41;;;;;;;4.20;3.50;;;20.90;85.00;;;;;;5009058;28;20211;-60
2023/12/27 02:05:08;;;;;;;4.53;3.45;;;21.00;85.10;;;;;;5014196;28;20466;-61
2023/12/27 02:07:38;;;;;;;3.88;3.35;;;21.00;85.10;;;;;;5007877;28;20755;-60
2023/12/27 02:10:06;;;;;;;3.97;3.57;;;20.90;85.00;;;;;;5012183;28;20434;-61
2023/12/27 02:12:37;;;;;;;5.20;3.47;;;21.00;85.10;;;;;;5003335;28;20611;-59
2023/12/27 02:15:08;;;;;;;6.38;4.15;;;20.90;85.10;;;;;;5009346;28;20202;-61
2023/12/27 02:17:40;;;;;;;5.80;4.07;;;20.90;85.00;;;;;;5008595;28;20195;-60
2023/12/27 02:20:08;;;;;;;3.90;3.50;;;20.90;85.10;;;;;;5013525;28;20460;-60
2023/12/27 02:22:39;;;;;;;4.75;3.70;;;20.90;85.10;;;;;;5012041;28;20468;-57
2023/12/27 02:25:09;;;;;;;4.00;3.57;;;20.90;85.00;;;;;;5013148;28;20203;-59
2023/12/27 02:27:36;;;;;;;4.22;3.13;;;20.90;85.20;;;;;;5012161;28;20469;-60
2023/12/27 02:30:03;;;;;;;4.70;3.35;;;20.90;85.00;;;;;;5007780;28;20211;-60
2023/12/27 02:32:29;;;;;;;5.07;3.70;;;20.90;85.20;;;;;;5012690;28;20698;-60
2023/12/27 02:34:58;;;;;;;5.07;3.22;;;20.90;85.00;;;;;;5007979;28;20467;-60
2023/12/27 02:37:25;;;;;;;2.80;2.60;;;20.90;84.90;;;;;;5011411;28;20207;-58
2023/12/27 02:39:52;;;;;;;2.88;2.55;;;20.90;85.00;;;;;;5012656;28;20963;-60
2023/12/27 02:42:22;;;;;;;3.90;3.60;;;20.90;85.00;;;;;;5008657;28;20197;-59
2023/12/27 02:44:49;;;;;;;4.32;2.80;;;20.90;85.00;;;;;;5012232;28;20416;-60
2023/12/27 02:47:17;;;;;;;4.60;3.10;;;20.80;85.10;;;;;;5015739;28;20407;-58
2023/12/27 02:49:47;;;;;;;3.20;2.90;;;20.90;85.30;;;;;;5016931;28;20459;-60
2023/12/27 02:52:13;;;;;;;4.83;3.10;;;20.80;85.10;;;;;;5014824;28;20372;-59
2023/12/27 02:54:40;;;;;;;3.33;3.03;;;20.80;84.90;;;;;;5016549;28;20472;-60
2023/12/27 02:57:07;;;;;;;4.32;3.30;;;20.80;84.90;;;;;;5007663;28;20203;-59
2023/12/27 02:59:35;;;;;;;5.40;3.63;;;20.80;84.90;;;;;;5010245;28;20199;-60
2023/12/27 03:02:10;;;;;;;4.40;3.03;;;20.80;85.00;;;;;;5012075;28;20207;-59
2023/12/27 03:04:38;;;;;;;4.57;2.80;;;20.80;85.00;;;;;;5015554;28;20463;-59
2023/12/27 03:07:07;;;;;;;6.10;3.50;;;20.80;84.90;;;;;;5011482;28;20290;-59
2023/12/27 03:09:33;;;;;;;3.42;3.17;;;20.80;84.90;;;;;;5013548;28;20748;-60
2023/12/27 03:12:02;;;;;;;3.50;2.97;;;20.80;85.00;;;;;;5010521;28;20716;-58
2023/12/27 03:14:31;;;;;;;4.05;3.28;;;20.80;85.00;;;;;;5012998;28;20290;-59
2023/12/27 03:17:04;;;;;;;3.67;3.13;;;20.80;84.80;;;;;;5011165;28;20286;-60
2023/12/27 03:19:31;;;;;;;4.13;3.00;;;20.80;85.00;;;;;;5013548;28;20562;-60
2023/12/27 03:22:01;;;;;;;3.55;2.78;;;20.80;85.00;;;;;;5013328;28;20465;-60
2023/12/27 03:24:27;;;;;;;4.30;3.33;;;20.80;84.90;;;;;;5012992;28;20206;-60
2023/12/27 03:26:54;;;;;;;3.80;2.90;;;20.80;85.00;;;;;;5014145;28;20571;-60
2023/12/27 03:29:21;;;;;;;3.95;3.15;;;20.80;84.80;;;;;;5020998;28;20209;-60
2023/12/27 03:31:48;;;;;;;5.07;2.15;;;20.80;84.90;;;;;;5018814;28;20265;-61
2023/12/27 03:34:16;;;;;;;3.58;2.35;;;20.80;84.90;;;;;;5018385;28;20523;-61
2023/12/27 03:36:43;;;;;;;3.70;2.80;;;20.80;84.90;;;;;;5012021;28;20200;-60
2023/12/27 03:39:09;;;;;;;3.20;2.90;;;20.80;85.00;;;;;;5015884;28;20203;-60
2023/12/27 03:44:58;;;;;;;3.05;2.55;;;20.70;85.00;;;;;;4994574;28;20194;-59
2023/12/27 03:47:25;;;;;;;3.00;2.47;;;20.70;84.90;;;;;;5016055;28;20566;-58
2023/12/27 03:49:53;;;;;;;2.90;2.58;;;20.70;84.80;;;;;;5013302;28;20199;-61
2023/12/27 03:52:23;;;;;;;3.85;2.72;;;20.70;84.90;;;;;;5016512;28;20618;-61
2023/12/27 03:54:50;;;;;;;4.13;2.97;;;20.70;85.00;;;;;;5007294;28;20209;-60
2023/12/27 03:57:16;;;;;;;4.50;3.20;;;20.70;84.90;;;;;;5009017;28;20479;-61
2023/12/27 03:59:45;;;;;;;2.67;2.40;;;20.70;84.90;;;;;;5014400;28;20258;-59
2023/12/27 04:02:11;;;;;;;4.25;2.67;;;20.70;84.80;;;;;;5015276;28;20681;-60
2023/12/27 04:04:41;;;;;;;3.55;2.40;;;20.70;84.80;;;;;;5013346;28;21059;-57
2023/12/27 04:07:09;;;;;;;3.40;2.50;;;20.70;84.90;;;;;;5010807;28;20205;-60
2023/12/27 04:09:41;;;;;;;6.22;2.90;;;20.70;84.90;;;;;;5006760;28;20599;-59
2023/12/27 04:12:13;;;;;;;3.80;2.70;;;20.70;84.80;;;;;;5012933;28;20216;-59
2023/12/27 04:14:41;;;;;;;3.65;2.85;;;20.70;84.80;;;;;;5011548;28;20471;-59
2023/12/27 04:17:08;;;;;;;2.35;2.15;;;20.70;84.70;;;;;;5009956;28;20203;-60
2023/12/27 04:19:35;;;;;;;3.58;2.78;;;20.70;84.80;;;;;;5014420;28;20658;-60
2023/12/27 04:22:02;;;;;;;3.88;2.45;;;20.70;84.90;;;;;;5017211;28;21017;-60
2023/12/27 04:24:33;;;;;;;3.15;2.40;;;20.70;84.80;;;;;;5016221;28;20207;-56
2023/12/27 04:26:59;;;;;;;3.20;2.55;;;20.70;84.80;;;;;;5013107;28;20638;-59
2023/12/27 04:29:26;;;;;;;2.90;2.03;;;20.70;84.70;;;;;;5014567;28;20208;-57
2023/12/27 04:31:53;;;;;;;3.00;2.00;;;20.70;84.70;;;;;;5017665;28;20204;-59
2023/12/27 04:34:20;;;;;;;3.67;2.85;;;20.70;84.60;;;;;;5017683;28;20206;-60
2023/12/27 04:36:49;;;;;;;2.30;2.10;;;20.70;85.50;;;;;;5014246;28;20860;-60
2023/12/27 04:39:17;;;;;;;2.40;2.20;;;20.70;84.80;;;;;;5016104;28;20448;-59
2023/12/27 04:41:48;;;;;;;2.50;2.30;;;20.70;84.90;;;;;;5020100;28;20195;-60
2023/12/27 04:44:14;;;;;;;2.28;2.08;;;20.60;85.50;;;;;;5015806;28;20843;-58
2023/12/27 04:46:41;;;;;;;5.20;3.25;;;20.60;84.70;;;;;;5014063;28;20203;-60
2023/12/27 04:49:12;;;;;;;5.00;3.40;;;20.60;84.60;;;;;;5014374;28;20882;-60
2023/12/27 04:51:38;;;;;;;3.03;2.45;;;20.60;84.70;;;;;;5013433;28;20228;-58
2023/12/27 04:54:05;;;;;;;3.65;2.55;;;20.60;84.60;;;;;;5011433;28;20693;-60
2023/12/27 04:56:34;;;;;;;3.00;2.15;;;20.60;84.70;;;;;;5013369;28;20202;-60
2023/12/27 04:59:04;;;;;;;3.58;2.10;;;20.60;84.80;;;;;;5010715;28;20533;-56
2023/12/27 05:01:30;;;;;;;3.33;2.72;;;20.60;84.60;;;;;;5012820;28;20199;-60
2023/12/27 05:03:57;;;;;;;2.28;2.00;;;20.60;84.70;;;;;;5011832;28;20200;-59
2023/12/27 05:06:24;;;;;;;2.90;2.20;;;20.60;84.70;;;;;;5012667;28;20890;-60
2023/12/27 05:08:53;;;;;;;3.50;2.10;;;20.60;84.60;;;;;;5005983;28;20192;-59
2023/12/27 05:11:21;;;;;;;3.63;2.17;;;20.60;84.80;;;;;;5015426;28;20191;-58
2023/12/27 05:13:48;;;;;;;2.55;1.90;;;20.60;84.60;;;;;;5012202;28;20227;-60
2023/12/27 05:16:17;;;;;;;2.55;2.35;;;20.60;84.60;;;;;;5015859;28;20195;-59
2023/12/27 05:18:45;;;;;;;4.57;2.70;;;20.60;84.70;;;;;;5014171;28;20225;-60
2023/12/27 05:21:18;;;;;;;2.03;1.80;;;20.60;84.60;;;;;;5014293;28;20200;-60
2023/12/27 05:23:45;;;;;;;2.90;2.60;;;20.60;84.60;;;;;;5010569;28;20287;-60
2023/12/27 05:26:11;;;;;;;3.42;2.17;;;20.60;84.50;;;;;;5016887;28;20790;-60
2023/12/27 05:28:40;;;;;;;3.08;2.20;;;20.60;84.30;;;;;;5010505;28;20413;-60
2023/12/27 05:31:11;;;;;;;2.47;2.28;;;20.60;84.30;;;;;;5012253;28;20582;-59
2023/12/27 05:33:43;;;;;;;2.13;1.55;;;20.60;84.30;;;;;;5015895;28;20227;-60
2023/12/27 05:36:10;;;;;;;2.33;2.03;;;20.60;84.30;;;;;;5012551;28;20199;-59
2023/12/27 05:38:37;;;;;;;2.97;1.75;;;20.60;84.30;;;;;;5010786;28;20203;-61
2023/12/27 05:41:04;;;;;;;3.17;2.20;;;20.60;84.30;;;;;;5014885;28;20254;-60
2023/12/27 05:43:34;;;;;;;2.10;1.70;;;20.60;84.20;;;;;;5013862;28;20666;-58
2023/12/27 05:46:05;;;;;;;2.22;1.83;;;20.60;84.20;;;;;;5011042;28;20818;-57
2023/12/27 05:48:32;;;;;;;3.15;2.00;;;20.60;84.20;;;;;;5013624;28;20669;-59
2023/12/27 05:50:59;;;;;;;4.60;2.40;;;20.60;84.30;;;;;;5010206;28;20243;-59
2023/12/27 05:53:26;;;;;;;2.38;2.15;;;20.60;84.10;;;;;;5013881;28;21103;-60
2023/12/27 05:55:55;;;;;;;2.95;1.98;;;20.60;84.10;;;;;;5007650;28;20195;-58
2023/12/27 05:58:22;;;;;;;3.45;2.40;;;20.50;83.90;;;;;;5011168;28;20199;-58
2023/12/27 06:00:48;;;;;;;2.53;1.93;;;20.50;83.90;;;;;;5010440;28;20675;-59
2023/12/27 06:03:16;;;;;;;3.97;3.08;;;20.60;84.00;;;;;;5014229;28;21045;-60
2023/12/27 06:05:43;;;;;;;2.90;2.17;;;20.60;84.00;;;;;;5010567;28;20663;-60
2023/12/27 06:08:15;;;;;;;2.47;2.10;;;20.50;83.90;;;;;;5013179;28;20208;-59
2023/12/27 06:10:42;;;;;;;3.13;2.05;;;20.50;83.90;;;;;;5013084;28;20469;-59
2023/12/27 06:13:13;;;;;;;4.85;2.67;;;20.50;83.80;;;;;;5010633;28;20218;-60
2023/12/27 06:15:40;;;;;;;3.17;1.80;;;20.50;83.80;;;;;;5012876;28;20199;-60
2023/12/27 06:18:08;;;;;;;4.85;2.72;;;20.50;83.80;;;;;;5012395;28;20210;-60
2023/12/27 06:20:35;;;;;;;2.92;1.88;;;20.50;83.80;;;;;;5014366;28;20430;-60
2023/12/27 06:23:04;;;;;;;2.50;2.30;;;20.50;83.80;;;;;;5009681;28;20640;-59
2023/12/27 06:25:37;;;;;;;2.50;2.28;;;20.50;83.70;;;;;;5010784;28;20805;-60
2023/12/27 06:28:08;;;;;;;2.37;1.70;;;20.50;83.70;;;;;;5007277;28;20870;-57
2023/12/27 06:30:34;;;;;;;2.47;2.10;;;20.50;83.70;;;;;;5008760;28;20902;-60
2023/12/27 06:33:01;;;;;;;4.60;2.35;;;20.50;83.60;;;;;;5011811;28;20219;-58
2023/12/27 06:35:28;;;;;;;3.25;2.55;;;20.50;83.60;;;;;;5010042;28;20199;-60
2023/12/27 06:37:54;;;;;;;2.53;2.13;;;20.50;83.60;;;;;;5008522;28;20199;-58
2023/12/27 06:40:21;;;;;;;2.35;1.80;;;20.50;83.60;;;;;;5014577;28;20203;-60
2023/12/27 06:42:49;;;;;;;2.47;2.28;;;20.50;83.60;;;;;;5012877;28;20206;-61
2023/12/27 06:45:18;;;;;;;3.05;1.80;;;20.50;83.60;;;;;;5016683;28;20234;-61
2023/12/27 06:47:51;;;;;;;2.30;1.70;;;20.50;83.50;;;;;;5014759;28;20203;-59
2023/12/27 06:50:21;;;;;;;3.00;2.05;;;20.50;83.40;;;;;;5012318;28;20238;-59
2023/12/27 06:52:49;;;;;;;4.28;2.67;;;20.50;83.40;;;;;;5009757;28;20362;-60
2023/12/27 06:55:16;;;;;;;2.40;2.00;;;20.50;83.40;;;;;;5010281;28;20214;-59
2023/12/27 06:57:46;;;;;;;3.60;2.47;;;20.50;83.40;;;;;;5009310;28;20206;-57
2023/12/27 07:00:17;;;;;;;2.72;2.08;;;20.50;84.10;;;;;;5014074;28;20195;-62
2023/12/27 07:02:47;;;;;;;2.17;1.75;;;20.50;83.40;;;;;;5014518;28;20199;-59
2023/12/27 07:05:14;;;;;;;2.08;1.88;;;20.40;83.40;;;;;;5015703;28;20680;-56
2023/12/27 07:07:41;;;;;;;5.45;1.75;;;20.40;83.20;;;;;;5013071;28;20206;-59
2023/12/27 07:10:11;;;;;;;2.72;2.22;;;20.40;83.30;;;;;;5011164;28;21643;-59
2023/12/27 07:12:41;;;;;;;2.25;2.05;;;20.40;83.20;;;;;;5012500;28;20546;-56
2023/12/27 07:15:10;;;;;;;3.50;2.83;;;20.40;83.20;;;;;;5013690;28;20657;-59
2023/12/27 07:17:38;;;;;;;2.00;1.55;;;20.40;83.20;;;;;;5010871;28;20638;-60
2023/12/27 07:20:06;;;;;;;2.58;2.20;;;20.40;83.20;;;;;;5011683;28;20192;-61
2023/12/27 07:22:34;;;;;;;2.30;2.10;;;20.40;83.20;;;;;;5010042;28;20218;-61
2023/12/27 07:25:01;;;;;;;3.60;1.75;;;20.40;83.20;;;;;;5006535;28;20207;-58
2023/12/27 07:27:28;;;;;;;3.30;2.40;;;20.40;83.20;;;;;;5014582;28;20196;-61
2023/12/27 07:29:55;;;;;;;3.17;1.50;;;20.40;83.40;;;;;;5010694;28;20191;-60
2023/12/27 07:32:32;;;;;;;1.92;1.60;;;20.40;83.40;;;;;;5011316;28;20503;-59
2023/12/27 07:35:01;;;;;;;2.40;2.00;;;20.40;83.50;;;;;;5014006;28;20214;-58
2023/12/27 07:37:27;;;;;;;3.30;2.20;;;20.40;83.40;;;;;;5011948;28;21256;-62
2023/12/27 07:39:54;;;;;;;2.35;2.05;;;20.50;83.60;;;;;;5013626;28;20458;-61
2023/12/27 07:42:24;;;;;;;3.15;2.20;;;20.40;83.50;;;;;;5009414;28;20199;-61
2023/12/27 07:44:55;;;;;;;1.83;1.60;;;20.40;83.60;;;;;;5010915;28;20219;-59
2023/12/27 07:47:22;;;;;;;2.28;1.70;;;20.50;83.70;;;;;;5016570;28;20195;-59
2023/12/27 07:49:51;;;;;;;2.53;2.33;;;20.50;83.80;;;;;;5015737;28;20195;-59
2023/12/27 07:52:20;;;;;;;1.90;1.70;;;20.50;83.70;;;;;;5007382;28;20905;-58
2023/12/27 07:54:48;;;;;;;2.50;2.30;;;20.50;83.90;;;;;;5006991;28;20472;-61
2023/12/27 07:57:15;;;;;;;2.15;1.85;;;20.60;84.10;;;;;;5008076;28;20191;-60
2023/12/27 07:59:45;;;;;;;2.58;2.05;;;20.50;83.70;;;;;;5010664;28;20593;-58
2023/12/27 08:02:11;;;;;;;2.00;1.63;;;20.60;83.90;;;;;;5005746;28;20207;-61
2023/12/27 08:04:40;;;;;;;2.00;1.80;;;20.60;83.90;;;;;;5011510;28;20191;-59
2023/12/27 08:07:07;;;;;;;3.85;2.30;;;20.60;83.90;;;;;;5008877;28;20195;-60
2023/12/27 08:09:35;;;;;;;2.45;1.60;;;20.60;83.90;;;;;;5002914;28;20203;-61
2023/12/27 08:12:02;;;;;;;2.33;2.10;;;20.60;83.90;;;;;;5011761;28;20621;-61
2023/12/27 08:14:29;;;;;;;2.20;2.00;;;20.60;84.00;;;;;;5013724;28;20223;-58
2023/12/27 08:16:56;;;;;;;2.38;1.83;;;20.60;83.90;;;;;;5015655;28;20197;-58
2023/12/27 08:19:27;;;;;;;2.05;1.75;;;20.70;84.00;;;;;;5013410;28;20210;-60
2023/12/27 08:21:57;;;;;;;2.53;1.80;;;20.70;84.00;;;;;;5011221;28;20562;-58
2023/12/27 08:24:28;;;;;;;1.70;1.50;;;20.70;83.90;;;;;;5012927;28;20195;-58
2023/12/27 08:26:56;;;;;;;3.10;2.05;;;20.70;83.90;;;;;;5013426;28;20199;-60
2023/12/27 08:29:25;;;;;;;2.30;1.65;;;20.70;83.70;;;;;;5011554;28;20652;-59
2023/12/27 08:31:52;;;;;;;2.30;2.00;;;20.70;84.60;;;;;;5009795;28;20200;-59
2023/12/27 08:34:18;;;;;;;1.83;1.73;;;20.70;83.60;;;;;;5012262;28;20466;-61
2023/12/27 08:36:47;;;;;;;1.83;1.57;;;20.80;83.90;;;;;;5012694;28;20485;-61
2023/12/27 08:39:14;;;;;;;2.30;1.65;;;20.80;83.80;;;;;;5009387;28;20480;-58
2023/12/27 08:41:41;;;;;;;3.15;1.70;;;20.80;83.90;;;;;;5010639;28;20321;-59
2023/12/27 08:44:12;;;;;;;2.00;1.80;;;20.80;83.80;;;;;;5005525;28;20856;-60
2023/12/27 08:46:41;;;;;;;2.10;1.50;;;20.80;83.70;;;;;;5013775;28;20218;-61
2023/12/27 08:49:08;;;;;;;2.33;1.60;;;20.80;83.80;;;;;;5009720;28;20458;-60
2023/12/27 08:51:35;;;;;;;2.42;1.98;;;20.80;83.80;;;;;;5011077;28;20462;-60
2023/12/27 08:54:02;;;;;;;2.20;1.50;;;20.80;83.70;;;;;;5012816;28;20223;-60
2023/12/27 08:56:29;;;;;;;1.40;1.30;;;20.80;83.50;;;;;;5013214;28;20608;-59
2023/12/27 08:58:56;;;;;;;1.80;1.55;;;20.80;83.70;;;;;;5012781;28;20285;-61
2023/12/27 09:01:24;;;;;;;1.73;1.55;;;20.80;83.50;;;;;;5013122;28;20196;-57
2023/12/27 09:03:50;;;;;;;1.75;1.65;;;20.80;83.70;;;;;;5010742;28;20209;-59
2023/12/27 09:06:20;;;;;;;1.77;1.60;;;20.80;83.50;;;;;;5016443;28;20665;-60
2023/12/27 09:08:49;;;;;;;1.60;1.50;;;20.80;83.50;;;;;;5014898;28;20469;-58
2023/12/27 09:11:18;;;;;;;1.77;1.38;;;20.80;83.50;;;;;;5016519;28;20199;-56
2023/12/27 09:13:45;;;;;;;2.03;1.33;;;20.80;83.60;;;;;;5007311;28;20254;-60
2023/12/27 09:16:14;;;;;;;8.02;1.70;;;20.80;84.00;;;;;;5009134;28;20461;-62
2023/12/27 09:18:42;;;;;;;3.47;1.50;;;20.80;83.80;;;;;;5009313;28;20495;-62
2023/12/27 09:21:09;;;;;;;2.67;1.77;;;20.90;84.20;;;;;;5012012;28;20226;-63
2023/12/27 09:23:37;;;;;;;1.93;1.73;;;20.90;84.40;;;;;;5009820;28;20511;-63
2023/12/27 09:26:12;;;;;;;7.43;2.10;;;20.80;84.40;;;;;;5012016;28;20737;-63
2023/12/27 09:28:38;;;;;;;5.03;2.40;;;20.80;84.70;;;;;;5004705;28;20460;-63
2023/12/27 09:31:10;;;;;;;6.43;1.88;;;20.80;84.70;;;;;;5011360;28;20207;-63
2023/12/27 09:33:36;;;;;;;4.93;2.10;;;20.80;84.50;;;;;;5011891;28;20840;-63
2023/12/27 09:36:07;;;;;;;3.08;2.17;;;20.80;84.60;;;;;;5010273;28;20472;-63
2023/12/27 09:38:34;;;;;;;3.75;2.20;;;20.80;84.60;;;;;;5014590;28;20199;-63
2023/12/27 09:41:03;;;;;;;9.13;2.67;;;20.80;84.50;;;;;;5013787;28;20198;-62
2023/12/27 09:43:31;;;;;;;3.78;1.73;;;20.80;84.50;;;;;;5010818;28;20458;-63
2023/12/27 09:45:58;;;;;;;4.15;2.50;;;20.70;84.50;;;;;;5012962;28;20214;-62
2023/12/27 09:48:27;;;;;;;2.60;1.95;;;20.80;84.40;;;;;;5012399;28;20207;-62
2023/12/27 09:50:55;;;;;;;4.30;1.75;;;20.80;83.90;;;;;;5012062;28;20519;-63
2023/12/27 09:53:24;;;;;;;3.08;2.15;;;20.80;83.60;;;;;;5013123;28;20226;-63
2023/12/27 09:55:54;;;;;;;4.10;1.75;;;20.80;83.10;;;;;;5014487;28;20206;-62
2023/12/27 09:58:21;;;;;;;2.97;1.92;;;20.80;82.80;;;;;;5015117;28;20557;-63
2023/12/27 10:00:51;;;;;;;2.35;1.60;;;20.80;82.70;;;;;;5011996;28;20477;-63
2023/12/27 10:03:25;;;;;;;3.00;1.60;;;20.80;82.50;;;;;;5010963;28;20810;-62
2023/12/27 10:06:03;;;;;;;3.75;1.55;;;20.80;82.30;;;;;;5013717;28;20334;-63
2023/12/27 10:08:31;;;;;;;1.88;1.60;;;20.80;82.20;;;;;;5011680;28;20199;-63
2023/12/27 10:11:01;;;;;;;2.40;1.60;;;20.80;82.20;;;;;;5012660;28;20738;-63
2023/12/27 10:13:28;;;;;;;2.15;1.80;;;20.80;82.00;;;;;;5007733;28;20211;-63
2023/12/27 10:15:55;;;;;;;2.03;1.52;;;20.90;82.00;;;;;;5011700;28;20254;-62
2023/12/27 10:18:21;;;;;;;1.60;1.30;;;20.90;81.90;;;;;;5012858;28;20326;-63
2023/12/27 10:20:50;;;;;;;1.83;1.58;;;20.90;82.60;;;;;;5011557;28;20204;-62
2023/12/27 10:23:17;;;;;;;4.40;1.90;;;20.90;82.70;;;;;;5008016;28;20198;-62
2023/12/27 10:25:48;;;;;;;1.85;1.52;;;20.90;82.80;;;;;;5015232;28;20528;-62
2023/12/27 10:28:15;;;;;;;2.00;1.63;;;20.90;83.00;;;;;;5011962;28;20195;-62
2023/12/27 10:30:41;;;;;;;2.60;1.60;;;20.90;82.90;;;;;;5015335;28;20465;-63
2023/12/27 10:33:10;;;;;;;3.92;1.40;;;20.90;82.80;;;;;;5011301;28;20732;-63
2023/12/27 10:35:38;;;;;;;2.67;1.80;;;20.90;82.90;;;;;;5012878;28;20242;-62
2023/12/27 10:38:13;;;;;;;2.45;1.52;;;20.90;82.80;;;;;;5013010;28;20199;-63
2023/12/27 10:40:41;;;;;;;3.37;1.70;;;20.90;82.80;;;;;;5011798;28;20757;-63
2023/12/27 10:43:11;;;;;;;2.70;2.50;;;20.90;82.80;;;;;;5009361;28;20499;-63
2023/12/27 10:45:38;;;;;;;2.07;1.43;;;20.90;82.40;;;;;;5010032;28;20467;-61
2023/12/27 10:48:06;;;;;;;1.95;1.75;;;20.90;82.60;;;;;;5010427;28;20630;-62
2023/12/27 10:50:34;;;;;;;3.75;1.83;;;20.90;82.80;;;;;;5012501;28;20540;-61
2023/12/27 10:53:06;;;;;;;1.48;1.20;;;20.90;83.20;;;;;;5012509;28;20426;-61
2023/12/27 10:55:42;;;;;;;2.45;1.35;;;20.90;83.50;;;;;;5012575;28;20223;-62
2023/12/27 10:58:19;;;;;;;4.72;1.63;;;21.00;83.80;;;;;;5010446;28;20203;-64
2023/12/27 11:00:47;;;;;;;2.53;1.70;;;21.00;84.00;;;;;;5012261;28;20742;-58
2023/12/27 11:03:17;;;;;;;2.43;1.60;;;21.00;84.30;;;;;;5010280;28;20831;-61
2023/12/27 11:05:45;;;;;;;2.33;1.43;;;21.00;84.50;;;;;;5014659;28;20465;-62
2023/12/27 11:08:14;;;;;;;2.33;1.43;;;21.00;84.60;;;;;;5010759;28;20466;-62
2023/12/27 11:10:46;;;;;;;2.83;2.00;;;21.10;84.70;;;;;;5012637;28;20860;-59
2023/12/27 11:13:16;;;;;;;1.80;1.53;;;21.10;84.90;;;;;;5010144;28;20592;-57
2023/12/27 11:15:45;;;;;;;4.63;1.50;;;21.10;85.00;;;;;;5009820;28;20477;-61
2023/12/27 11:18:16;;;;;;;2.90;1.60;;;21.20;85.20;;;;;;5007719;28;20208;-66
2023/12/27 11:20:47;;;;;;;1.67;1.30;;;21.20;85.30;;;;;;5008380;28;20972;-62
2023/12/27 11:23:16;;;;;;;2.77;1.53;;;21.20;85.20;;;;;;5005642;28;20605;-62
2023/12/27 11:25:42;;;;;;;2.17;1.60;;;21.20;85.30;;;;;;5007028;28;20457;-58
2023/12/27 11:28:09;;;;;;;1.53;1.20;;;21.20;85.20;;;;;;5006808;28;20462;-61
2023/12/27 11:30:38;;;;;;;2.83;1.70;;;21.20;85.00;;;;;;5005726;28;20468;-60
2023/12/27 11:33:05;;;;;;;1.40;1.30;;;21.20;85.00;;;;;;5007723;28;20977;-59
2023/12/27 11:35:35;;;;;;;1.70;1.50;;;21.30;85.00;;;;;;5007508;28;20491;-62
2023/12/27 11:38:14;;;;;;;2.43;1.90;;;21.30;85.10;;;;;;5008045;28;20451;-58
2023/12/27 11:40:43;;;;;;;1.70;1.60;;;21.30;85.00;;;;;;5010743;28;20459;-56
2023/12/27 11:43:09;;;;;;;1.40;1.10;;;21.30;84.90;;;;;;5006047;28;20818;-56
2023/12/27 11:45:58;;;;;;;2.10;1.27;;;21.30;84.80;;;;;;5011243;28;20466;-60
2023/12/27 11:48:32;;;;;;;4.40;1.50;;;21.40;85.00;;;;;;5006164;28;20504;-61
2023/12/27 11:51:02;;;;;;;2.37;1.20;;;21.40;85.10;;;;;;5008694;28;20920;-62
2023/12/27 11:53:33;;;;;;;2.00;1.50;;;21.40;85.20;;;;;;5007146;28;20999;-60
2023/12/27 11:56:05;;;;;;;2.10;1.40;;;21.40;85.20;;;;;;5011770;28;20488;-58
2023/12/27 11:58:33;;;;;;;1.80;1.33;;;21.40;85.20;;;;;;5009734;28;20476;-60
2023/12/27 12:01:24;;;;;;;2.00;1.50;;;21.50;85.30;;;;;;5009091;28;21089;-61
2023/12/27 12:04:03;;;;;;;1.57;1.47;;;21.50;85.10;;;;;;5012527;28;20484;-60
2023/12/27 12:06:45;;;;;;;1.77;1.30;;;21.50;85.10;;;;;;5015344;28;20469;-59
2023/12/27 12:09:14;;;;;;;2.43;1.50;;;21.60;85.40;;;;;;5011258;28;21153;-56
2023/12/27 12:11:47;;;;;;;2.07;1.57;;;21.60;85.10;;;;;;5011860;28;20640;-59
2023/12/27 12:14:13;;;;;;;2.33;1.27;;;21.60;85.00;;;;;;5005443;28;22901;-56
2023/12/27 12:16:49;;;;;;;2.30;1.40;;;21.60;84.90;;;;;;5011180;28;20469;-58
2023/12/27 12:19:17;;;;;;;1.53;1.30;;;21.70;85.50;;;;;;5013531;28;20461;-60
2023/12/27 12:21:45;;;;;;;1.20;0.90;;;21.70;84.80;;;;;;5014252;28;20459;-60
2023/12/27 12:24:13;;;;;;;1.40;1.20;;;21.70;84.70;;;;;;5016359;28;20566;-61
2023/12/27 12:26:45;;;;;;;1.33;1.23;;;21.70;84.40;;;;;;5012549;28;20457;-61
2023/12/27 12:29:14;;;;;;;2.60;1.13;;;21.70;84.30;;;;;;5009735;28;20932;-64
2023/12/27 12:31:45;;;;;;;1.20;1.03;;;21.70;84.40;;;;;;5010252;28;20476;-63
2023/12/27 12:34:14;;;;;;;1.83;1.30;;;21.80;84.40;;;;;;5011314;28;20855;-63
2023/12/27 12:36:43;;;;;;;1.73;1.60;;;21.80;84.40;;;;;;5013406;28;20781;-63
2023/12/27 12:39:13;;;;;;;1.30;1.10;;;21.80;84.20;;;;;;5006873;28;20462;-64
2023/12/27 12:41:41;;;;;;;2.23;1.30;;;21.80;84.40;;;;;;5014085;28;20446;-66
2023/12/27 12:44:09;;;;;;;2.63;1.23;;;21.80;84.40;;;;;;5014954;28;20452;-61
2023/12/27 12:46:36;;;;;;;1.10;1.00;;;21.80;84.60;;;;;;5020298;28;20864;-59
2023/12/27 12:49:05;;;;;;;1.83;1.40;;;21.90;84.40;;;;;;5016690;28;21309;-59
2023/12/27 12:51:34;;;;;;;1.83;1.27;;;21.90;84.50;;;;;;5013916;28;20533;-61
2023/12/27 12:54:01;;;;;;;2.23;1.40;;;21.80;84.30;;;;;;5012059;28;20462;-63
2023/12/27 12:56:29;;;;;;;1.80;1.20;;;21.90;84.60;;;;;;5016762;28;21072;-61
2023/12/27 12:58:57;;;;;;;1.47;1.30;;;21.90;84.30;;;;;;5013555;28;20458;-64